sensor_id;sensor_type;location;lat;lon;timestamp;temperature;humidity
35668;DHT22;22158;59.280;17.806;2023-03-20T05:01:40;3.70;99.90
35668;DHT22;22158;59.280;17.806;2023-03-20T05:04:06;3.70;99.90
35668;DHT22;22158;59.280;17.806;2023-03-20T05:06:31;3.70;99.90
35668;DHT22;22158;59.280;17.806;2023-03-20T05:08:57;3.70;99.90
35668;DHT22;22158;59.280;17.806;2023-03-20T05:11:24;3.70;99.90
35668;DHT22;22158;59.280;17.806;2023-03-20T05:13:50;3.60;99.90
35668;DHT22;22158;59.280;17.806;2023-03-20T05:16:16;3.60;99.90
35668;DHT22;22158;59.280;17.806;2023-03-20T05:18:42;3.70;99.90
35668;DHT22;22158;59.280;17.806;2023-03-20T05:21:07;3.60;99.90
35668;DHT22;22158;59.280;17.806;2023-03-20T05:23:33;3.70;99.90
35668;DHT22;22158;59.280;17.806;2023-03-20T05:25:59;3.60;99.90
35668;DHT22;22158;59.280;17.806;2023-03-20T05:28:24;3.70;99.90
35668;DHT22;22158;59.280;17.806;2023-03-20T05:30:50;3.70;99.90
35668;DHT22;22158;59.280;17.806;2023-03-20T05:33:15;3.70;99.90
35668;DHT22;22158;59.280;17.806;2023-03-20T05:35:41;3.80;99.90
35668;DHT22;22158;59.280;17.806;2023-03-20T05:38:06;3.80;99.90
35668;DHT22;22158;59.280;17.806;2023-03-20T05:40:32;3.80;99.90
35668;DHT22;22158;59.280;17.806;2023-03-20T05:42:58;3.80;99.90
35668;DHT22;22158;59.280;17.806;2023-03-20T05:45:23;3.80;99.90
35668;DHT22;22158;59.280;17.806;2023-03-20T05:47:49;3.80;99.90
35668;DHT22;22158;59.280;17.806;2023-03-20T05:50:15;3.80;99.90
35668;DHT22;22158;59.280;17.806;2023-03-20T05:52:40;3.90;99.90
35668;DHT22;22158;59.280;17.806;2023-03-20T05:55:06;3.90;99.90
35668;DHT22;22158;59.280;17.806;2023-03-20T05:57:32;3.90;99.90
35668;DHT22;22158;59.280;17.806;2023-03-20T05:59:57;3.90;99.90
35668;DHT22;22158;59.280;17.806;2023-03-20T06:02:23;3.90;99.90
35668;DHT22;22158;59.280;17.806;2023-03-20T06:04:49;3.90;99.90
35668;DHT22;22158;59.280;17.806;2023-03-20T06:07:14;3.90;99.90
35668;DHT22;22158;59.280;17.806;2023-03-20T06:09:40;3.90;99.90
35668;DHT22;22158;59.280;17.806;2023-03-20T06:12:06;3.90;99.90
35668;DHT22;22158;59.280;17.806;2023-03-20T06:14:31;3.90;99.90
35668;DHT22;22158;59.280;17.806;2023-03-20T06:16:57;4.00;99.90
35668;DHT22;22158;59.280;17.806;2023-03-20T06:19:23;3.90;99.90
35668;DHT22;22158;59.280;17.806;2023-03-20T06:21:49;4.00;99.90
35668;DHT22;22158;59.280;17.806;2023-03-20T06:24:15;3.90;99.90
35668;DHT22;22158;59.280;17.806;2023-03-20T06:26:41;3.90;99.90
35668;DHT22;22158;59.280;17.806;2023-03-20T06:29:07;3.90;99.90
35668;DHT22;22158;59.280;17.806;2023-03-20T06:31:33;4.00;99.90
35668;DHT22;22158;59.280;17.806;2023-03-20T06:33:58;3.90;99.90
35668;DHT22;22158;59.280;17.806;2023-03-20T06:36:24;4.00;99.90
35668;DHT22;22158;59.280;17.806;2023-03-20T06:38:49;4.00;99.90
35668;DHT22;22158;59.280;17.806;2023-03-20T06:41:15;4.00;99.90
35668;DHT22;22158;59.280;17.806;2023-03-20T06:43:41;4.10;99.90
35668;DHT22;22158;59.280;17.806;2023-03-20T06:46:07;4.10;99.90
35668;DHT22;22158;59.280;17.806;2023-03-20T06:48:33;4.20;99.90
35668;DHT22;22158;59.280;17.806;2023-03-20T06:50:58;4.20;99.90
35668;DHT22;22158;59.280;17.806;2023-03-20T06:53:24;4.30;99.90
35668;DHT22;22158;59.280;17.806;2023-03-20T06:55:51;4.30;99.90
35668;DHT22;22158;59.280;17.806;2023-03-20T06:58:17;4.40;99.90
35668;DHT22;22158;59.280;17.806;2023-03-20T07:00:43;4.50;99.90
35668;DHT22;22158;59.280;17.806;2023-03-20T07:03:09;4.50;99.90
35668;DHT22;22158;59.280;17.806;2023-03-20T07:05:36;4.40;99.90
35668;DHT22;22158;59.280;17.806;2023-03-20T07:08:03;4.40;99.90
35668;DHT22;22158;59.280;17.806;2023-03-20T07:10:29;4.40;99.90
35668;DHT22;22158;59.280;17.806;2023-03-20T07:12:54;4.40;99.90
35668;DHT22;22158;59.280;17.806;2023-03-20T07:15:21;4.50;99.90
35668;DHT22;22158;59.280;17.806;2023-03-20T07:17:46;4.50;99.90
35668;DHT22;22158;59.280;17.806;2023-03-20T07:20:13;4.50;99.90
35668;DHT22;22158;59.280;17.806;2023-03-20T07:22:39;4.50;99.90
35668;DHT22;22158;59.280;17.806;2023-03-20T07:25:07;4.50;99.90
35668;DHT22;22158;59.280;17.806;2023-03-20T07:27:33;4.60;99.90
35668;DHT22;22158;59.280;17.806;2023-03-20T07:29:59;4.60;99.90
35668;DHT22;22158;59.280;17.806;2023-03-20T07:32:25;4.70;99.90
35668;DHT22;22158;59.280;17.806;2023-03-20T07:34:51;4.70;99.90
35668;DHT22;22158;59.280;17.806;2023-03-20T07:37:16;4.80;99.90
35668;DHT22;22158;59.280;17.806;2023-03-20T07:39:42;4.90;99.90
35668;DHT22;22158;59.280;17.806;2023-03-20T07:42:08;5.00;99.90
35668;DHT22;22158;59.280;17.806;2023-03-20T07:44:33;4.90;99.90
35668;DHT22;22158;59.280;17.806;2023-03-20T07:46:59;4.90;99.90
35668;DHT22;22158;59.280;17.806;2023-03-20T07:49:25;5.00;99.90
35668;DHT22;22158;59.280;17.806;2023-03-20T07:51:51;5.00;99.90
35668;DHT22;22158;59.280;17.806;2023-03-20T07:54:19;5.00;99.90
35668;DHT22;22158;59.280;17.806;2023-03-20T07:56:45;5.10;99.90
35668;DHT22;22158;59.280;17.806;2023-03-20T07:59:12;5.10;99.90
35668;DHT22;22158;59.280;17.806;2023-03-20T08:01:37;5.10;99.90
35668;DHT22;22158;59.280;17.806;2023-03-20T08:04:03;5.20;99.90
35668;DHT22;22158;59.280;17.806;2023-03-20T08:06:29;5.20;99.90
35668;DHT22;22158;59.280;17.806;2023-03-20T08:08:55;5.20;99.90
35668;DHT22;22158;59.280;17.806;2023-03-20T08:11:20;5.20;99.90
35668;DHT22;22158;59.280;17.806;2023-03-20T08:13:46;5.30;99.90
35668;DHT22;22158;59.280;17.806;2023-03-20T08:16:12;5.20;99.90
35668;DHT22;22158;59.280;17.806;2023-03-20T08:18:37;5.30;99.90
35668;DHT22;22158;59.280;17.806;2023-03-20T08:21:03;5.30;99.90
35668;DHT22;22158;59.280;17.806;2023-03-20T08:23:29;5.30;99.90
35668;DHT22;22158;59.280;17.806;2023-03-20T08:25:55;5.40;99.90
35668;DHT22;22158;59.280;17.806;2023-03-20T08:28:21;5.40;99.90
35668;DHT22;22158;59.280;17.806;2023-03-20T08:30:47;5.50;99.90
35668;DHT22;22158;59.280;17.806;2023-03-20T08:33:14;5.40;99.90
35668;DHT22;22158;59.280;17.806;2023-03-20T08:35:40;5.50;99.90
35668;DHT22;22158;59.280;17.806;2023-03-20T08:38:06;5.40;99.90
35668;DHT22;22158;59.280;17.806;2023-03-20T08:40:32;5.40;99.90
35668;DHT22;22158;59.280;17.806;2023-03-20T08:42:57;5.40;99.90
35668;DHT22;22158;59.280;17.806;2023-03-20T08:45:23;5.60;99.90
35668;DHT22;22158;59.280;17.806;2023-03-20T08:47:50;5.60;99.90
35668;DHT22;22158;59.280;17.806;2023-03-20T08:50:16;5.70;99.90
35668;DHT22;22158;59.280;17.806;2023-03-20T08:52:42;5.80;99.90
35668;DHT22;22158;59.280;17.806;2023-03-20T08:55:12;5.90;99.90
35668;DHT22;22158;59.280;17.806;2023-03-20T08:57:39;5.90;99.90
35668;DHT22;22158;59.280;17.806;2023-03-20T09:00:05;5.90;99.90
35668;DHT22;22158;59.280;17.806;2023-03-20T09:02:32;5.90;99.90
35668;DHT22;22158;59.280;17.806;2023-03-20T09:04:57;5.90;99.90
35668;DHT22;22158;59.280;17.806;2023-03-20T09:07:23;5.90;99.90
35668;DHT22;22158;59.280;17.806;2023-03-20T09:09:48;5.90;99.90
35668;DHT22;22158;59.280;17.806;2023-03-20T09:12:14;5.90;99.90
35668;DHT22;22158;59.280;17.806;2023-03-20T09:14:40;5.90;99.90
35668;DHT22;22158;59.280;17.806;2023-03-20T09:17:06;5.90;99.90
35668;DHT22;22158;59.280;17.806;2023-03-20T09:19:33;5.80;99.90
35668;DHT22;22158;59.280;17.806;2023-03-20T09:21:59;5.70;99.90
35668;DHT22;22158;59.280;17.806;2023-03-20T09:24:25;5.60;99.90
35668;DHT22;22158;59.280;17.806;2023-03-20T09:26:51;5.50;99.90
35668;DHT22;22158;59.280;17.806;2023-03-20T09:29:17;5.50;99.90
35668;DHT22;22158;59.280;17.806;2023-03-20T09:31:42;5.50;99.90
35668;DHT22;22158;59.280;17.806;2023-03-20T09:34:08;5.40;99.90
35668;DHT22;22158;59.280;17.806;2023-03-20T09:36:34;5.50;99.90
35668;DHT22;22158;59.280;17.806;2023-03-20T09:39:00;5.50;99.90
35668;DHT22;22158;59.280;17.806;2023-03-20T09:41:26;5.50;99.90
35668;DHT22;22158;59.280;17.806;2023-03-20T09:44:11;5.50;99.90
35668;DHT22;22158;59.280;17.806;2023-03-20T09:55:16;5.50;99.90
35668;DHT22;22158;59.280;17.806;2023-03-20T09:57:46;5.50;99.90
35668;DHT22;22158;59.280;17.806;2023-03-20T10:00:18;5.50;99.90
35668;DHT22;22158;59.280;17.806;2023-03-20T10:05:42;5.60;99.90
35668;DHT22;22158;59.280;17.806;2023-03-20T10:08:14;5.70;99.90
35668;DHT22;22158;59.280;17.806;2023-03-20T10:21:45;5.90;99.90
35668;DHT22;22158;59.280;17.806;2023-03-20T10:24:16;5.90;99.90
35668;DHT22;22158;59.280;17.806;2023-03-20T10:26:47;6.00;99.90
35668;DHT22;22158;59.280;17.806;2023-03-20T10:29:47;6.10;99.90
35668;DHT22;22158;59.280;17.806;2023-03-20T10:35:15;6.10;99.90
35668;DHT22;22158;59.280;17.806;2023-03-20T10:40:39;6.20;99.90
35668;DHT22;22158;59.280;17.806;2023-03-20T10:43:17;6.20;99.90
35668;DHT22;22158;59.280;17.806;2023-03-20T10:45:56;6.30;99.90
35668;DHT22;22158;59.280;17.806;2023-03-20T10:50:59;6.50;99.90
35668;DHT22;22158;59.280;17.806;2023-03-20T10:53:35;6.70;99.90
35668;DHT22;22158;59.280;17.806;2023-03-20T10:56:09;6.70;99.90
35668;DHT22;22158;59.280;17.806;2023-03-20T10:58:39;6.70;99.90
35668;DHT22;22158;59.280;17.806;2023-03-20T11:01:06;6.80;99.90
35668;DHT22;22158;59.280;17.806;2023-03-20T11:03:33;6.80;99.90
35668;DHT22;22158;59.280;17.806;2023-03-20T11:06:24;6.90;99.90
35668;DHT22;22158;59.280;17.806;2023-03-20T11:08:53;7.00;99.90
35668;DHT22;22158;59.280;17.806;2023-03-20T11:11:23;7.00;99.90
35668;DHT22;22158;59.280;17.806;2023-03-20T11:13:49;7.10;99.90
35668;DHT22;22158;59.280;17.806;2023-03-20T11:16:22;7.00;99.90
35668;DHT22;22158;59.280;17.806;2023-03-20T11:18:49;7.10;99.90
35668;DHT22;22158;59.280;17.806;2023-03-20T11:21:22;7.20;99.90
35668;DHT22;22158;59.280;17.806;2023-03-20T11:23:49;7.10;99.90
35668;DHT22;22158;59.280;17.806;2023-03-20T11:26:52;7.10;99.90
35668;DHT22;22158;59.280;17.806;2023-03-20T11:29:30;7.10;99.90
35668;DHT22;22158;59.280;17.806;2023-03-20T11:34:50;7.10;99.90
35668;DHT22;22158;59.280;17.806;2023-03-20T11:37:33;7.00;99.90
35668;DHT22;22158;59.280;17.806;2023-03-20T11:40:09;7.00;99.90
35668;DHT22;22158;59.280;17.806;2023-03-20T11:42:38;7.00;99.90
35668;DHT22;22158;59.280;17.806;2023-03-20T11:45:24;7.00;99.90
35668;DHT22;22158;59.280;17.806;2023-03-20T11:47:53;7.00;99.90
35668;DHT22;22158;59.280;17.806;2023-03-20T11:50:37;7.00;99.90
35668;DHT22;22158;59.280;17.806;2023-03-20T11:53:23;7.00;99.90
35668;DHT22;22158;59.280;17.806;2023-03-20T12:01:23;7.00;99.90
35668;DHT22;22158;59.280;17.806;2023-03-20T12:06:27;7.00;99.90
35668;DHT22;22158;59.280;17.806;2023-03-20T12:09:04;7.10;99.90
35668;DHT22;22158;59.280;17.806;2023-03-20T12:11:47;7.20;99.90
35668;DHT22;22158;59.280;17.806;2023-03-20T12:14:47;7.30;99.90
35668;DHT22;22158;59.280;17.806;2023-03-20T12:25:37;7.80;99.90
35668;DHT22;22158;59.280;17.806;2023-03-20T12:36:45;8.10;99.90
35668;DHT22;22158;59.280;17.806;2023-03-20T12:39:16;8.20;99.90
35668;DHT22;22158;59.280;17.806;2023-03-20T12:44:38;8.10;99.90
35668;DHT22;22158;59.280;17.806;2023-03-20T12:53:23;7.90;99.90
35668;DHT22;22158;59.280;17.806;2023-03-20T12:58:50;7.70;99.90
35668;DHT22;22158;59.280;17.806;2023-03-20T13:09:29;7.70;99.90
35668;DHT22;22158;59.280;17.806;2023-03-20T13:17:38;7.70;99.90
35668;DHT22;22158;59.280;17.806;2023-03-20T13:20:24;7.80;99.90
35668;DHT22;22158;59.280;17.806;2023-03-20T13:23:15;7.90;99.90
35668;DHT22;22158;59.280;17.806;2023-03-20T13:28:51;8.00;99.90
35668;DHT22;22158;59.280;17.806;2023-03-20T13:37:16;8.30;99.90
35668;DHT22;22158;59.280;17.806;2023-03-20T13:42:23;8.20;99.90
35668;DHT22;22158;59.280;17.806;2023-03-20T13:45:05;8.20;99.90
35668;DHT22;22158;59.280;17.806;2023-03-20T13:47:32;8.20;99.90
35668;DHT22;22158;59.280;17.806;2023-03-20T13:52:48;8.00;99.90
35668;DHT22;22158;59.280;17.806;2023-03-20T13:55:42;7.80;99.90
35668;DHT22;22158;59.280;17.806;2023-03-20T13:58:32;7.70;99.90
35668;DHT22;22158;59.280;17.806;2023-03-20T14:03:38;7.40;99.90
35668;DHT22;22158;59.280;17.806;2023-03-20T14:09:39;7.20;99.90
35668;DHT22;22158;59.280;17.806;2023-03-20T14:12:12;7.10;99.90
35668;DHT22;22158;59.280;17.806;2023-03-20T14:14:54;7.10;99.90
35668;DHT22;22158;59.280;17.806;2023-03-20T14:17:29;6.90;99.90
35668;DHT22;22158;59.280;17.806;2023-03-20T14:19:55;6.70;99.90
35668;DHT22;22158;59.280;17.806;2023-03-20T14:22:26;6.60;99.90
35668;DHT22;22158;59.280;17.806;2023-03-20T14:24:56;6.40;99.90
35668;DHT22;22158;59.280;17.806;2023-03-20T14:27:26;6.20;99.90
35668;DHT22;22158;59.280;17.806;2023-03-20T14:29:52;6.00;99.90
35668;DHT22;22158;59.280;17.806;2023-03-20T14:37:35;5.90;99.90
35668;DHT22;22158;59.280;17.806;2023-03-20T14:40:06;5.80;99.90
35668;DHT22;22158;59.280;17.806;2023-03-20T14:45:35;5.60;99.90
35668;DHT22;22158;59.280;17.806;2023-03-20T14:48:24;5.60;99.90
35668;DHT22;22158;59.280;17.806;2023-03-20T14:53:41;5.40;99.90
35668;DHT22;22158;59.280;17.806;2023-03-20T15:01:04;5.20;99.90
35668;DHT22;22158;59.280;17.806;2023-03-20T15:03:31;5.10;99.90
35668;DHT22;22158;59.280;17.806;2023-03-20T15:06:03;5.10;99.90
35668;DHT22;22158;59.280;17.806;2023-03-20T15:08:35;5.10;99.90
35668;DHT22;22158;59.280;17.806;2023-03-20T15:11:06;4.90;99.90
35668;DHT22;22158;59.280;17.806;2023-03-20T15:13:34;4.90;99.90
35668;DHT22;22158;59.280;17.806;2023-03-20T15:18:56;4.70;99.90
35668;DHT22;22158;59.280;17.806;2023-03-20T15:21:42;4.70;99.90
35668;DHT22;22158;59.280;17.806;2023-03-20T15:24:16;4.70;99.90
35668;DHT22;22158;59.280;17.806;2023-03-20T15:26:43;4.60;99.90
35668;DHT22;22158;59.280;17.806;2023-03-20T15:29:15;4.50;99.90
35668;DHT22;22158;59.280;17.806;2023-03-20T15:31:43;4.40;99.90
35668;DHT22;22158;59.280;17.806;2023-03-20T15:34:17;4.40;99.90
35668;DHT22;22158;59.280;17.806;2023-03-20T15:36:44;4.40;99.90
35668;DHT22;22158;59.280;17.806;2023-03-20T15:39:22;4.30;99.90
35668;DHT22;22158;59.280;17.806;2023-03-20T15:41:57;4.20;99.90
35668;DHT22;22158;59.280;17.806;2023-03-20T15:44:32;4.10;99.90
35668;DHT22;22158;59.280;17.806;2023-03-20T15:49:41;4.00;99.90
35668;DHT22;22158;59.280;17.806;2023-03-20T15:52:25;3.90;99.90
35668;DHT22;22158;59.280;17.806;2023-03-20T15:54:57;3.80;99.90
35668;DHT22;22158;59.280;17.806;2023-03-20T15:57:35;3.80;99.90
35668;DHT22;22158;59.280;17.806;2023-03-20T16:00:13;3.80;99.90
35668;DHT22;22158;59.280;17.806;2023-03-20T16:02:44;3.80;99.90
35668;DHT22;22158;59.280;17.806;2023-03-20T16:05:12;3.80;99.90
35668;DHT22;22158;59.280;17.806;2023-03-20T16:07:40;3.80;99.90
35668;DHT22;22158;59.280;17.806;2023-03-20T16:10:29;3.80;99.90
35668;DHT22;22158;59.280;17.806;2023-03-20T16:12:56;3.80;99.90
35668;DHT22;22158;59.280;17.806;2023-03-20T16:15:24;3.70;99.90
35668;DHT22;22158;59.280;17.806;2023-03-20T16:17:54;3.60;99.90
35668;DHT22;22158;59.280;17.806;2023-03-20T16:20:23;3.60;99.90
35668;DHT22;22158;59.280;17.806;2023-03-20T16:22:52;3.60;99.90
35668;DHT22;22158;59.280;17.806;2023-03-20T16:25:20;3.50;99.90
35668;DHT22;22158;59.280;17.806;2023-03-20T16:27:48;3.50;99.90
35668;DHT22;22158;59.280;17.806;2023-03-20T16:30:17;3.40;99.90
35668;DHT22;22158;59.280;17.806;2023-03-20T16:32:46;3.40;99.90
35668;DHT22;22158;59.280;17.806;2023-03-20T16:35:21;3.40;99.90
35668;DHT22;22158;59.280;17.806;2023-03-20T16:37:54;3.40;99.90
35668;DHT22;22158;59.280;17.806;2023-03-20T16:42:53;3.30;99.90
35668;DHT22;22158;59.280;17.806;2023-03-20T16:45:28;3.20;99.90
35668;DHT22;22158;59.280;17.806;2023-03-20T16:50:39;3.10;99.90
35668;DHT22;22158;59.280;17.806;2023-03-20T16:53:16;3.10;99.90
35668;DHT22;22158;59.280;17.806;2023-03-20T16:55:50;3.10;99.90
35668;DHT22;22158;59.280;17.806;2023-03-20T16:58:26;3.00;99.90
35668;DHT22;22158;59.280;17.806;2023-03-20T17:00:57;3.00;99.90
35668;DHT22;22158;59.280;17.806;2023-03-20T17:06:25;3.00;99.90
35668;DHT22;22158;59.280;17.806;2023-03-20T17:08:58;3.00;99.90
35668;DHT22;22158;59.280;17.806;2023-03-20T17:11:31;2.90;99.90
35668;DHT22;22158;59.280;17.806;2023-03-20T17:13:58;2.80;99.90
35668;DHT22;22158;59.280;17.806;2023-03-20T17:16:24;2.80;99.90
35668;DHT22;22158;59.280;17.806;2023-03-20T17:19:04;2.80;99.90
35668;DHT22;22158;59.280;17.806;2023-03-20T17:21:31;2.80;99.90
35668;DHT22;22158;59.280;17.806;2023-03-20T17:23:57;2.80;99.90
35668;DHT22;22158;59.280;17.806;2023-03-20T17:26:24;2.70;99.90
35668;DHT22;22158;59.280;17.806;2023-03-20T17:28:50;2.70;99.90
35668;DHT22;22158;59.280;17.806;2023-03-20T17:31:16;2.70;99.90
35668;DHT22;22158;59.280;17.806;2023-03-20T17:33:43;2.60;99.90
35668;DHT22;22158;59.280;17.806;2023-03-20T17:36:15;2.60;99.90
35668;DHT22;22158;59.280;17.806;2023-03-20T17:38:42;2.60;99.90
35668;DHT22;22158;59.280;17.806;2023-03-20T17:41:15;2.60;99.90
35668;DHT22;22158;59.280;17.806;2023-03-20T17:43:42;2.50;99.90
35668;DHT22;22158;59.280;17.806;2023-03-20T17:46:19;2.50;99.90
35668;DHT22;22158;59.280;17.806;2023-03-20T17:48:49;2.60;99.90
35668;DHT22;22158;59.280;17.806;2023-03-20T17:51:15;2.60;99.90
35668;DHT22;22158;59.280;17.806;2023-03-20T17:53:41;2.60;99.90
35668;DHT22;22158;59.280;17.806;2023-03-20T17:56:15;2.60;99.90
35668;DHT22;22158;59.280;17.806;2023-03-20T17:58:41;2.60;99.90
35668;DHT22;22158;59.280;17.806;2023-03-20T18:01:10;2.60;99.90
35668;DHT22;22158;59.280;17.806;2023-03-20T18:03:36;2.60;99.90
35668;DHT22;22158;59.280;17.806;2023-03-20T18:06:02;2.50;99.90
35668;DHT22;22158;59.280;17.806;2023-03-20T18:08:28;2.50;99.90
35668;DHT22;22158;59.280;17.806;2023-03-20T18:10:54;2.50;99.90
35668;DHT22;22158;59.280;17.806;2023-03-20T18:13:21;2.50;99.90
35668;DHT22;22158;59.280;17.806;2023-03-20T18:15:48;2.40;99.90
35668;DHT22;22158;59.280;17.806;2023-03-20T18:18:14;2.40;99.90
35668;DHT22;22158;59.280;17.806;2023-03-20T18:20:40;2.40;99.90
35668;DHT22;22158;59.280;17.806;2023-03-20T18:23:06;2.40;99.90
35668;DHT22;22158;59.280;17.806;2023-03-20T18:25:32;2.40;99.90
35668;DHT22;22158;59.280;17.806;2023-03-20T18:27:59;2.30;99.90
35668;DHT22;22158;59.280;17.806;2023-03-20T18:30:29;2.30;99.90
35668;DHT22;22158;59.280;17.806;2023-03-20T18:32:56;2.20;99.90
35668;DHT22;22158;59.280;17.806;2023-03-20T18:35:22;2.20;99.90
35668;DHT22;22158;59.280;17.806;2023-03-20T18:37:47;2.20;99.90
35668;DHT22;22158;59.280;17.806;2023-03-20T18:40:25;2.10;99.90
35668;DHT22;22158;59.280;17.806;2023-03-20T18:42:52;2.10;99.90
35668;DHT22;22158;59.280;17.806;2023-03-20T18:45:19;2.10;99.90
35668;DHT22;22158;59.280;17.806;2023-03-20T18:47:44;2.10;99.90
35668;DHT22;22158;59.280;17.806;2023-03-20T18:50:21;2.00;99.90
35668;DHT22;22158;59.280;17.806;2023-03-20T18:52:48;2.00;99.90
35668;DHT22;22158;59.280;17.806;2023-03-20T18:55:14;1.90;99.90
35668;DHT22;22158;59.280;17.806;2023-03-20T18:57:40;1.90;99.90
35668;DHT22;22158;59.280;17.806;2023-03-20T19:00:30;1.80;99.90
35668;DHT22;22158;59.280;17.806;2023-03-20T19:03:00;1.70;99.90
35668;DHT22;22158;59.280;17.806;2023-03-20T19:05:27;1.70;99.90
35668;DHT22;22158;59.280;17.806;2023-03-20T19:07:52;1.70;99.90
35668;DHT22;22158;59.280;17.806;2023-03-20T19:10:26;1.70;99.90
35668;DHT22;22158;59.280;17.806;2023-03-20T19:12:53;1.60;99.90
35668;DHT22;22158;59.280;17.806;2023-03-20T19:15:20;1.60;99.90
35668;DHT22;22158;59.280;17.806;2023-03-20T19:17:46;1.60;99.90
35668;DHT22;22158;59.280;17.806;2023-03-20T19:20:28;1.60;99.90
35668;DHT22;22158;59.280;17.806;2023-03-20T19:22:54;1.60;99.90
35668;DHT22;22158;59.280;17.806;2023-03-20T19:25:20;1.60;99.90
35668;DHT22;22158;59.280;17.806;2023-03-20T19:27:47;1.60;99.90
35668;DHT22;22158;59.280;17.806;2023-03-20T19:30:23;1.60;99.90
35668;DHT22;22158;59.280;17.806;2023-03-20T19:32:50;1.60;99.90
35668;DHT22;22158;59.280;17.806;2023-03-20T19:35:15;1.70;99.90
35668;DHT22;22158;59.280;17.806;2023-03-20T19:37:41;1.70;99.90
35668;DHT22;22158;59.280;17.806;2023-03-20T19:40:38;1.70;99.90
35668;DHT22;22158;59.280;17.806;2023-03-20T19:43:04;1.70;99.90
35668;DHT22;22158;59.280;17.806;2023-03-20T19:45:32;1.80;99.90
35668;DHT22;22158;59.280;17.806;2023-03-20T19:47:59;1.80;99.90
35668;DHT22;22158;59.280;17.806;2023-03-20T19:52:54;1.80;99.90
35668;DHT22;22158;59.280;17.806;2023-03-20T19:55:21;1.80;99.90
35668;DHT22;22158;59.280;17.806;2023-03-20T19:57:46;1.70;99.90
35668;DHT22;22158;59.280;17.806;2023-03-20T20:00:13;1.60;99.90
35668;DHT22;22158;59.280;17.806;2023-03-20T20:02:39;1.70;99.90
35668;DHT22;22158;59.280;17.806;2023-03-20T20:05:06;1.70;99.90
35668;DHT22;22158;59.280;17.806;2023-03-20T20:07:32;1.70;99.90
35668;DHT22;22158;59.280;17.806;2023-03-20T20:09:57;1.70;99.90
35668;DHT22;22158;59.280;17.806;2023-03-20T20:12:23;1.70;99.90
35668;DHT22;22158;59.280;17.806;2023-03-20T20:14:48;1.70;99.90
35668;DHT22;22158;59.280;17.806;2023-03-20T20:17:14;1.70;99.90
35668;DHT22;22158;59.280;17.806;2023-03-20T20:19:39;1.70;99.90
35668;DHT22;22158;59.280;17.806;2023-03-20T20:22:05;1.70;99.90
35668;DHT22;22158;59.280;17.806;2023-03-20T20:24:31;1.70;99.90
35668;DHT22;22158;59.280;17.806;2023-03-20T20:26:57;1.70;99.90
35668;DHT22;22158;59.280;17.806;2023-03-20T20:29:23;1.70;99.90
35668;DHT22;22158;59.280;17.806;2023-03-20T20:31:49;1.70;99.90
35668;DHT22;22158;59.280;17.806;2023-03-20T20:34:15;1.70;99.90
35668;DHT22;22158;59.280;17.806;2023-03-20T20:36:41;1.70;99.90
35668;DHT22;22158;59.280;17.806;2023-03-20T20:39:06;1.70;99.90
35668;DHT22;22158;59.280;17.806;2023-03-20T20:41:32;1.60;99.90
35668;DHT22;22158;59.280;17.806;2023-03-20T20:43:58;1.60;99.90
35668;DHT22;22158;59.280;17.806;2023-03-20T20:46:23;1.60;99.90
35668;DHT22;22158;59.280;17.806;2023-03-20T20:48:49;1.60;99.90
35668;DHT22;22158;59.280;17.806;2023-03-20T20:51:16;1.50;99.90
35668;DHT22;22158;59.280;17.806;2023-03-20T20:53:42;1.60;99.90
35668;DHT22;22158;59.280;17.806;2023-03-20T20:56:08;1.60;99.90
35668;DHT22;22158;59.280;17.806;2023-03-20T20:58:34;1.60;99.90
35668;DHT22;22158;59.280;17.806;2023-03-20T21:01:00;1.50;99.90
35668;DHT22;22158;59.280;17.806;2023-03-20T21:03:26;1.50;99.90
35668;DHT22;22158;59.280;17.806;2023-03-20T21:05:56;1.40;99.90
35668;DHT22;22158;59.280;17.806;2023-03-20T21:08:21;1.40;99.90
35668;DHT22;22158;59.280;17.806;2023-03-20T21:10:47;1.40;99.90
35668;DHT22;22158;59.280;17.806;2023-03-20T21:13:13;1.40;99.90
35668;DHT22;22158;59.280;17.806;2023-03-20T21:15:40;1.30;99.90
35668;DHT22;22158;59.280;17.806;2023-03-20T21:18:06;1.30;99.90
35668;DHT22;22158;59.280;17.806;2023-03-20T21:20:32;1.30;99.90
35668;DHT22;22158;59.280;17.806;2023-03-20T21:22:58;1.30;99.90
35668;DHT22;22158;59.280;17.806;2023-03-20T21:25:24;1.30;99.90
35668;DHT22;22158;59.280;17.806;2023-03-20T21:27:52;1.20;99.90
35668;DHT22;22158;59.280;17.806;2023-03-20T21:30:17;1.20;99.90
35668;DHT22;22158;59.280;17.806;2023-03-20T21:32:43;1.20;99.90
35668;DHT22;22158;59.280;17.806;2023-03-20T21:35:09;1.10;99.90
35668;DHT22;22158;59.280;17.806;2023-03-20T21:37:36;1.10;99.90
35668;DHT22;22158;59.280;17.806;2023-03-20T21:40:05;1.10;99.90
35668;DHT22;22158;59.280;17.806;2023-03-20T21:42:32;1.10;99.90
35668;DHT22;22158;59.280;17.806;2023-03-20T21:44:59;1.10;99.90
35668;DHT22;22158;59.280;17.806;2023-03-20T21:47:25;1.10;99.90
35668;DHT22;22158;59.280;17.806;2023-03-20T21:49:51;1.10;99.90
35668;DHT22;22158;59.280;17.806;2023-03-20T21:52:17;1.00;99.90
35668;DHT22;22158;59.280;17.806;2023-03-20T21:54:44;1.00;99.90
35668;DHT22;22158;59.280;17.806;2023-03-20T21:57:11;1.00;99.90
35668;DHT22;22158;59.280;17.806;2023-03-20T21:59:36;0.90;99.90
35668;DHT22;22158;59.280;17.806;2023-03-20T22:02:03;0.90;99.90
35668;DHT22;22158;59.280;17.806;2023-03-20T22:04:28;0.80;99.90
35668;DHT22;22158;59.280;17.806;2023-03-20T22:06:54;0.80;99.90
35668;DHT22;22158;59.280;17.806;2023-03-20T22:09:23;0.80;99.90
35668;DHT22;22158;59.280;17.806;2023-03-20T22:11:49;0.70;99.90
35668;DHT22;22158;59.280;17.806;2023-03-20T22:14:15;0.80;99.90
35668;DHT22;22158;59.280;17.806;2023-03-20T22:16:41;0.80;99.90
35668;DHT22;22158;59.280;17.806;2023-03-20T22:19:06;0.80;99.90
35668;DHT22;22158;59.280;17.806;2023-03-20T22:21:32;0.80;99.90
35668;DHT22;22158;59.280;17.806;2023-03-20T22:23:58;0.80;99.90
35668;DHT22;22158;59.280;17.806;2023-03-20T22:26:24;0.70;99.90
35668;DHT22;22158;59.280;17.806;2023-03-20T22:28:49;0.70;99.90
35668;DHT22;22158;59.280;17.806;2023-03-20T22:31:16;0.70;99.90
35668;DHT22;22158;59.280;17.806;2023-03-20T22:33:42;0.70;99.90
35668;DHT22;22158;59.280;17.806;2023-03-20T22:36:13;0.80;99.90
35668;DHT22;22158;59.280;17.806;2023-03-20T22:38:38;0.80;99.90
35668;DHT22;22158;59.280;17.806;2023-03-20T22:41:05;0.80;99.90
35668;DHT22;22158;59.280;17.806;2023-03-20T22:43:31;0.80;99.90
35668;DHT22;22158;59.280;17.806;2023-03-20T22:45:57;0.80;99.90
35668;DHT22;22158;59.280;17.806;2023-03-20T22:48:23;0.80;99.90
35668;DHT22;22158;59.280;17.806;2023-03-20T22:50:49;0.80;99.90
35668;DHT22;22158;59.280;17.806;2023-03-20T22:53:16;0.90;99.90
35668;DHT22;22158;59.280;17.806;2023-03-20T22:55:42;0.80;99.90
35668;DHT22;22158;59.280;17.806;2023-03-20T22:58:10;0.80;99.90
